< < Back
Terminal Aerodrome Forecast


Current Version              Previous Versions:   1  2  3  4  5  6  7  8  9  

Terminal Aerodrome Forecast

572
FTUS42 KJAX 301120
TAFJAX
TAF
KJAX 301120Z 3012/3112 30006KT P6SM SCT080 SCT120
     FM302200 VRB05KT P6SM SCT050 SCT100=

Latest METAR

496
SAUS80 KWBC 310000
MTRJAX
METAR KJAX 302356Z 15009KT 10SM FEW050 SCT075 SCT200 29/20 A2990 RMK AO2
SLP124 CB DSNT SW T02890200 10344 20289 53008


USA.gov is the U.S. government's official web portal to all federal, state and local government web resources and services.